Time;durP1;ratioP1;P1;durP2;ratioP2;P2;SDS_P1;SDS_P2;PMS_P1;PMS_P2;Temp;Humidity;BMP_temperature;BMP_pressure;BME280_temperature;BME280_humidity;BME280_pressure;Samples;Min_cycle;Max_cycle;Signal;HPM_P1;HPM_P2
2022/07/31 00:01:40;;;;;;;1.85;1.17;;;26.30;43.40;;;;;;5018126;28;20096;-58
2022/07/31 00:04:06;;;;;;;2.03;1.33;;;26.30;43.50;;;;;;5016914;28;20112;-58
2022/07/31 00:06:31;;;;;;;2.17;1.30;;;26.30;43.50;;;;;;5016196;28;20128;-55
2022/07/31 00:08:57;;;;;;;2.65;1.10;;;26.30;43.60;;;;;;5018685;28;20026;-57
2022/07/31 00:11:23;;;;;;;1.40;0.95;;;26.20;43.60;;;;;;5018472;28;20030;-58
2022/07/31 00:13:49;;;;;;;1.77;1.10;;;26.20;43.60;;;;;;5018019;28;20033;-58
2022/07/31 00:16:15;;;;;;;1.80;1.08;;;26.20;43.70;;;;;;5016652;28;20460;-57
2022/07/31 00:18:41;;;;;;;2.00;1.20;;;26.20;43.80;;;;;;5018065;28;20085;-58
2022/07/31 00:21:07;;;;;;;1.77;1.20;;;26.20;43.80;;;;;;5017270;28;20046;-58
2022/07/31 00:23:33;;;;;;;1.65;1.10;;;26.20;43.90;;;;;;5016778;28;20030;-56
2022/07/31 00:25:58;;;;;;;2.47;1.42;;;26.20;44.00;;;;;;5017520;28;20453;-58
2022/07/31 00:28:24;;;;;;;3.67;1.30;;;26.20;44.00;;;;;;5016722;28;20088;-55
2022/07/31 00:30:50;;;;;;;1.23;0.93;;;26.20;44.00;;;;;;5017713;28;20041;-57
2022/07/31 00:33:17;;;;;;;1.05;0.88;;;26.20;44.10;;;;;;5018237;28;20038;-60
2022/07/31 00:35:42;;;;;;;2.40;1.17;;;26.20;44.10;;;;;;5016893;28;20037;-57
2022/07/31 00:38:09;;;;;;;2.28;1.33;;;26.20;44.20;;;;;;5015830;28;20445;-58
2022/07/31 00:40:35;;;;;;;2.47;1.08;;;26.20;44.30;;;;;;5018344;28;20037;-60
2022/07/31 00:43:01;;;;;;;1.63;1.02;;;26.10;44.20;;;;;;5016486;28;20048;-59
2022/07/31 00:45:27;;;;;;;1.80;1.30;;;26.10;44.30;;;;;;5016324;28;20037;-55
2022/07/31 00:47:53;;;;;;;2.00;1.10;;;26.10;44.30;;;;;;5015200;28;20030;-59
2022/07/31 00:50:18;;;;;;;1.85;1.02;;;26.10;44.40;;;;;;5015192;28;20030;-57
2022/07/31 00:52:44;;;;;;;2.40;1.40;;;26.10;44.40;;;;;;5016156;28;20038;-55
2022/07/31 00:55:10;;;;;;;2.08;1.20;;;26.10;44.50;;;;;;5015398;28;20100;-58
2022/07/31 00:57:36;;;;;;;2.80;1.20;;;26.10;44.50;;;;;;5016088;28;20430;-59
2022/07/31 01:00:03;;;;;;;1.35;1.10;;;26.10;44.60;;;;;;5014850;28;20107;-59
2022/07/31 01:02:29;;;;;;;1.63;1.02;;;26.00;44.50;;;;;;5017532;28;20052;-54
2022/07/31 01:04:55;;;;;;;3.13;1.20;;;26.10;44.60;;;;;;5016580;28;20038;-58
2022/07/31 01:07:21;;;;;;;2.13;1.10;;;26.00;44.60;;;;;;5017267;28;20425;-56
2022/07/31 01:09:48;;;;;;;2.20;0.98;;;26.00;44.70;;;;;;5017274;28;20440;-55
2022/07/31 01:12:21;;;;;;;1.15;1.00;;;26.00;44.70;;;;;;5011320;28;20465;-56
2022/07/31 01:14:54;;;;;;;1.75;1.00;;;26.00;44.70;;;;;;5016182;28;20057;-58
2022/07/31 01:17:22;;;;;;;2.20;1.05;;;26.00;44.80;;;;;;5016467;28;20516;-56
2022/07/31 01:19:49;;;;;;;1.98;1.00;;;26.00;44.80;;;;;;5016006;28;20033;-57
2022/07/31 01:22:42;;;;;;;1.90;1.00;;;26.00;44.80;;;;;;5014267;28;20116;-57
2022/07/31 01:25:40;;;;;;;2.28;1.25;;;26.00;44.80;;;;;;5014510;28;20025;-58
2022/07/31 01:28:21;;;;;;;1.27;1.00;;;26.00;44.90;;;;;;4973404;28;20060;-57
2022/07/31 01:30:53;;;;;;;1.53;1.10;;;26.00;44.90;;;;;;5015925;28;20397;-61
2022/07/31 01:33:22;;;;;;;1.73;1.10;;;26.00;44.90;;;;;;5015537;28;20327;-55
2022/07/31 01:35:53;;;;;;;1.88;0.95;;;26.00;45.00;;;;;;5013543;28;20025;-56
2022/07/31 01:38:28;;;;;;;1.42;1.00;;;25.90;44.90;;;;;;5016370;28;20033;-56
2022/07/31 01:41:03;;;;;;;2.13;1.05;;;25.90;44.90;;;;;;5015016;28;20092;-58
2022/07/31 01:43:34;;;;;;;2.13;1.20;;;25.90;44.90;;;;;;5015723;28;20107;-59
2022/07/31 01:46:03;;;;;;;1.77;1.00;;;25.90;45.00;;;;;;5013698;28;20348;-59
2022/07/31 01:48:32;;;;;;;2.75;0.95;;;25.90;45.00;;;;;;5015182;28;20030;-58
2022/07/31 01:51:00;;;;;;;1.92;1.10;;;25.90;45.00;;;;;;5015649;28;20026;-56
2022/07/31 01:53:30;;;;;;;1.67;1.00;;;25.90;45.00;;;;;;5014755;28;20429;-57
2022/07/31 01:55:58;;;;;;;2.20;1.20;;;25.90;45.10;;;;;;5015265;28;20046;-56
2022/07/31 01:58:26;;;;;;;1.15;0.90;;;25.80;45.10;;;;;;5014476;28;20464;-57
2022/07/31 02:00:58;;;;;;;1.65;0.95;;;25.80;45.10;;;;;;5015145;28;20034;-57
2022/07/31 02:03:25;;;;;;;1.80;1.17;;;25.90;45.20;;;;;;5014060;28;20034;-56
2022/07/31 02:05:53;;;;;;;1.55;1.05;;;25.90;45.20;;;;;;5015348;28;20354;-57
2022/07/31 02:08:20;;;;;;;2.03;1.10;;;25.80;45.20;;;;;;5014307;28;20030;-57
2022/07/31 02:10:47;;;;;;;1.40;1.00;;;25.90;45.30;;;;;;5013930;28;20365;-55
2022/07/31 02:13:16;;;;;;;1.65;1.10;;;25.90;45.40;;;;;;5014587;28;20034;-58
2022/07/31 02:15:44;;;;;;;1.80;1.10;;;25.80;45.40;;;;;;5015751;28;20041;-57
2022/07/31 02:18:11;;;;;;;2.00;0.85;;;25.80;45.40;;;;;;5014493;28;20030;-55
2022/07/31 02:21:00;;;;;;;1.40;1.10;;;25.80;45.40;;;;;;5014998;28;20040;-55
2022/07/31 02:23:25;;;;;;;1.55;1.00;;;25.80;45.50;;;;;;5000622;28;20042;-56
2022/07/31 02:25:51;;;;;;;2.05;1.13;;;25.80;45.50;;;;;;4995736;28;20034;-56
2022/07/31 02:28:19;;;;;;;2.35;1.10;;;25.80;45.60;;;;;;5015174;28;20034;-56
2022/07/31 02:30:47;;;;;;;1.40;1.05;;;25.80;45.60;;;;;;5014418;28;20026;-59
2022/07/31 02:33:17;;;;;;;2.13;1.02;;;25.80;45.60;;;;;;5010317;28;20038;-58
2022/07/31 02:35:46;;;;;;;2.28;0.98;;;25.80;45.60;;;;;;5014923;28;20444;-55
2022/07/31 02:38:17;;;;;;;1.33;1.02;;;25.80;45.70;;;;;;5015605;28;20034;-54
2022/07/31 02:40:43;;;;;;;1.40;0.98;;;25.80;45.70;;;;;;5007336;28;20065;-57
2022/07/31 02:43:10;;;;;;;1.60;1.02;;;25.80;45.80;;;;;;5011780;28;20121;-57
2022/07/31 02:45:37;;;;;;;1.80;1.08;;;25.80;45.80;;;;;;5013503;28;20476;-57
2022/07/31 02:48:04;;;;;;;1.95;0.90;;;25.80;45.80;;;;;;5014203;28;20112;-58
2022/07/31 02:50:30;;;;;;;1.40;0.77;;;25.70;45.80;;;;;;5014338;28;20112;-59
2022/07/31 02:52:57;;;;;;;0.85;0.60;;;25.80;45.90;;;;;;5014059;28;20034;-57
2022/07/31 02:55:23;;;;;;;1.92;1.08;;;25.80;45.90;;;;;;5012464;28;20111;-58
2022/07/31 02:57:50;;;;;;;1.65;1.10;;;25.70;45.90;;;;;;5029252;28;20046;-56
2022/07/31 03:00:22;;;;;;;1.27;0.90;;;25.70;45.90;;;;;;5014298;28;20049;-56
2022/07/31 03:02:50;;;;;;;1.20;0.90;;;25.80;46.00;;;;;;5014350;28;20056;-56
2022/07/31 03:05:16;;;;;;;1.23;1.00;;;25.80;46.00;;;;;;5014266;28;20045;-58
2022/07/31 03:07:43;;;;;;;1.50;1.00;;;25.70;46.00;;;;;;5011882;28;20041;-57
2022/07/31 03:10:10;;;;;;;1.48;1.00;;;25.70;46.00;;;;;;5013544;28;20029;-59
2022/07/31 03:12:43;;;;;;;1.00;0.80;;;25.70;46.00;;;;;;5014531;28;20026;-57
2022/07/31 03:15:14;;;;;;;1.80;1.00;;;25.70;46.00;;;;;;5014508;28;20030;-59
2022/07/31 03:17:42;;;;;;;2.25;0.98;;;25.70;46.10;;;;;;5013330;28;20026;-60
2022/07/31 03:20:12;;;;;;;1.55;0.80;;;25.70;46.10;;;;;;5013250;28;20096;-59
2022/07/31 03:22:39;;;;;;;1.70;1.00;;;25.60;46.10;;;;;;5015727;28;20034;-56
2022/07/31 03:25:06;;;;;;;1.33;0.80;;;25.70;46.20;;;;;;5020634;28;20062;-57
2022/07/31 03:27:33;;;;;;;2.15;1.00;;;25.70;46.30;;;;;;5022157;28;20061;-58
2022/07/31 03:29:59;;;;;;;1.25;0.90;;;25.70;46.30;;;;;;5019337;28;20034;-54
2022/07/31 03:32:24;;;;;;;1.58;0.90;;;25.70;46.30;;;;;;5020200;28;20037;-57
2022/07/31 03:34:50;;;;;;;1.25;0.93;;;25.60;46.30;;;;;;5021180;28;20099;-57
2022/07/31 03:37:16;;;;;;;1.58;0.82;;;25.60;46.30;;;;;;5019684;28;20054;-57
2022/07/31 03:39:42;;;;;;;1.35;0.80;;;25.60;46.40;;;;;;5010625;28;20096;-56
2022/07/31 03:42:12;;;;;;;1.50;1.00;;;25.60;46.40;;;;;;5008585;28;20111;-58
2022/07/31 03:44:39;;;;;;;0.93;0.82;;;25.60;46.40;;;;;;5020166;28;20472;-56
2022/07/31 03:47:06;;;;;;;1.67;0.88;;;25.60;46.50;;;;;;5004208;28;20041;-60
2022/07/31 03:49:32;;;;;;;1.30;1.05;;;25.60;46.50;;;;;;5020013;28;20038;-55
2022/07/31 03:51:59;;;;;;;1.20;1.10;;;25.60;46.60;;;;;;5018950;28;20105;-58
2022/07/31 03:54:25;;;;;;;2.78;1.08;;;25.60;46.60;;;;;;5019546;28;20054;-57
2022/07/31 03:57:11;;;;;;;1.85;1.15;;;25.60;46.60;;;;;;5020904;28;20029;-56
2022/07/31 03:59:39;;;;;;;1.73;0.95;;;25.60;46.70;;;;;;5020400;28;20440;-55
2022/07/31 04:02:06;;;;;;;1.08;0.82;;;25.60;46.70;;;;;;5019963;28;20033;-58
2022/07/31 04:04:38;;;;;;;1.10;0.80;;;25.60;46.70;;;;;;5019517;28;20029;-59
2022/07/31 04:07:05;;;;;;;1.88;1.25;;;25.60;46.70;;;;;;5016027;28;20372;-55
2022/07/31 04:09:31;;;;;;;1.02;0.93;;;25.60;46.80;;;;;;5021225;28;20132;-58
2022/07/31 04:11:58;;;;;;;1.73;1.05;;;25.60;46.80;;;;;;5018391;28;20092;-58
2022/07/31 04:14:23;;;;;;;1.60;0.98;;;25.60;46.80;;;;;;5019076;28;20349;-57
2022/07/31 04:16:49;;;;;;;1.75;1.20;;;25.60;46.90;;;;;;5019955;28;20376;-58
2022/07/31 04:19:15;;;;;;;2.50;1.67;;;25.60;46.90;;;;;;5019762;28;20050;-56
2022/07/31 04:21:41;;;;;;;1.90;1.30;;;25.60;47.00;;;;;;5015230;28;20022;-56
2022/07/31 04:24:07;;;;;;;1.33;1.20;;;25.60;47.70;;;;;;5020494;28;20107;-57
2022/07/31 04:27:05;;;;;;;1.40;1.30;;;25.60;47.10;;;;;;4985783;28;20076;-60
2022/07/31 04:29:38;;;;;;;1.67;1.15;;;25.60;47.20;;;;;;5019688;28;20031;-59
2022/07/31 04:32:04;;;;;;;1.75;1.50;;;25.60;47.20;;;;;;5020130;28;20026;-57
2022/07/31 04:34:38;;;;;;;1.70;1.20;;;25.50;47.20;;;;;;5017994;28;20057;-59
2022/07/31 04:37:05;;;;;;;2.00;1.20;;;25.60;47.30;;;;;;5015548;28;20044;-58
2022/07/31 04:39:31;;;;;;;2.38;1.27;;;25.60;47.40;;;;;;5014752;28;20026;-58
2022/07/31 04:41:57;;;;;;;1.90;1.08;;;25.60;47.50;;;;;;5016267;28;20033;-57
2022/07/31 04:44:23;;;;;;;1.75;1.27;;;25.60;47.60;;;;;;5016573;28;20030;-57
2022/07/31 04:47:00;;;;;;;2.38;1.50;;;25.50;47.50;;;;;;5016311;28;20049;-58
2022/07/31 04:49:27;;;;;;;2.10;1.50;;;25.60;47.60;;;;;;5016891;28;20117;-55
2022/07/31 04:51:53;;;;;;;2.10;1.30;;;25.50;47.70;;;;;;5014506;28;20030;-55
2022/07/31 04:54:19;;;;;;;2.03;1.50;;;25.50;47.70;;;;;;5015436;28;20057;-52
2022/07/31 04:56:47;;;;;;;2.20;1.40;;;25.50;47.80;;;;;;5016783;28;20030;-54
2022/07/31 04:59:16;;;;;;;2.22;1.40;;;25.50;47.80;;;;;;5016179;28;20034;-56
2022/07/31 05:01:45;;;;;;;4.57;1.45;;;25.60;48.00;;;;;;5014611;28;20040;-57
2022/07/31 05:04:13;;;;;;;1.77;1.50;;;25.60;48.00;;;;;;5014908;28;20061;-57
2022/07/31 05:06:43;;;;;;;2.00;1.50;;;25.50;48.00;;;;;;5015331;28;20042;-59
2022/07/31 05:09:14;;;;;;;1.95;1.33;;;25.50;48.10;;;;;;5016860;28;20131;-58
2022/07/31 05:11:41;;;;;;;1.90;1.25;;;25.50;48.10;;;;;;5015894;28;20476;-57
2022/07/31 05:14:09;;;;;;;2.80;1.20;;;25.50;48.20;;;;;;5015941;28;20041;-60
2022/07/31 05:16:35;;;;;;;2.28;1.42;;;25.50;48.20;;;;;;5016322;28;20048;-58
2022/07/31 05:19:02;;;;;;;1.65;1.27;;;25.50;48.20;;;;;;5016012;28;20034;-55
2022/07/31 05:21:58;;;;;;;2.15;1.17;;;25.50;48.30;;;;;;5015537;28;20095;-56
2022/07/31 05:24:42;;;;;;;2.35;1.30;;;25.50;48.40;;;;;;5017019;28;20056;-54
2022/07/31 05:27:10;;;;;;;2.35;1.13;;;25.50;48.50;;;;;;5010607;28;20029;-54
2022/07/31 05:29:37;;;;;;;2.50;1.40;;;25.50;48.50;;;;;;4996991;28;20096;-56
2022/07/31 05:32:03;;;;;;;2.40;1.20;;;25.50;48.60;;;;;;5012466;28;20029;-55
2022/07/31 05:34:31;;;;;;;1.77;1.30;;;25.60;48.80;;;;;;5015908;28;20033;-55
2022/07/31 05:37:01;;;;;;;2.10;1.33;;;25.60;48.80;;;;;;5014826;28;20032;-58
2022/07/31 05:39:29;;;;;;;3.00;1.40;;;25.50;48.70;;;;;;5008541;28;20442;-56
2022/07/31 05:42:13;;;;;;;;;;;25.60;48.80;;;;;;4997279;28;20049;-55
2022/07/31 05:44:57;;;;;;;2.13;1.50;;;25.60;48.80;;;;;;5002093;28;20020;-56
2022/07/31 05:47:23;;;;;;;2.97;1.38;;;25.50;48.70;;;;;;4979458;28;20510;-56
2022/07/31 05:49:49;;;;;;;1.85;1.30;;;25.50;48.80;;;;;;5002866;28;20132;-57
2022/07/31 05:52:18;;;;;;;2.67;1.30;;;25.50;48.80;;;;;;5015474;28;20033;-59
2022/07/31 05:54:51;;;;;;;3.72;1.30;;;25.50;48.90;;;;;;5022694;28;20053;-58
2022/07/31 05:57:46;;;;;;;;;;;25.50;49.60;;;;;;5003372;28;20052;-56
2022/07/31 06:00:12;;;;;;;2.72;1.35;;;25.50;49.00;;;;;;5013572;28;19913;-56
2022/07/31 06:02:40;;;;;;;2.17;1.17;;;25.50;49.00;;;;;;5015423;28;20022;-55
2022/07/31 06:05:28;;;;;;;2.00;1.20;;;25.50;49.00;;;;;;4985434;28;20053;-55
2022/07/31 06:07:58;;;;;;;2.17;1.30;;;25.50;49.10;;;;;;5016231;28;20033;-58
2022/07/31 06:10:25;;;;;;;2.42;1.35;;;25.50;49.10;;;;;;5011318;28;20365;-58
2022/07/31 06:12:52;;;;;;;1.95;1.05;;;25.50;49.10;;;;;;5014724;28;20030;-56
2022/07/31 06:15:18;;;;;;;3.88;1.50;;;25.50;49.10;;;;;;5013543;28;20044;-55
2022/07/31 06:17:44;;;;;;;2.83;1.58;;;25.60;49.20;;;;;;4998957;28;20038;-56
2022/07/31 06:20:19;;;;;;;2.08;1.30;;;25.60;49.80;;;;;;5013704;28;20030;-54
2022/07/31 06:22:44;;;;;;;2.47;1.30;;;25.60;49.30;;;;;;5012905;28;20026;-54
2022/07/31 06:25:11;;;;;;;3.05;1.50;;;25.60;49.30;;;;;;5012237;28;20109;-55
2022/07/31 06:27:38;;;;;;;2.47;1.40;;;25.50;49.20;;;;;;5012535;28;20480;-55
2022/07/31 06:30:05;;;;;;;2.65;1.35;;;25.50;49.20;;;;;;5014722;28;20034;-59
2022/07/31 06:32:35;;;;;;;2.63;1.17;;;25.50;49.20;;;;;;5013475;28;20030;-57
2022/07/31 06:35:01;;;;;;;3.83;1.70;;;25.60;49.30;;;;;;5012023;28;20049;-57
2022/07/31 06:37:30;;;;;;;3.15;1.50;;;25.50;49.20;;;;;;4984840;28;20030;-58
2022/07/31 06:39:57;;;;;;;3.45;1.48;;;25.50;49.20;;;;;;5014757;28;20365;-56
2022/07/31 06:42:55;;;;;;;3.00;1.65;;;25.50;49.30;;;;;;4983279;28;20096;-55
2022/07/31 06:45:41;;;;;;;2.20;1.48;;;25.50;49.30;;;;;;5015190;28;20088;-56
2022/07/31 06:48:26;;;;;;;2.40;1.50;;;25.50;49.30;;;;;;5015074;28;20084;-56
2022/07/31 06:51:01;;;;;;;1.60;1.30;;;25.50;49.30;;;;;;5012586;28;20034;-56
2022/07/31 06:53:35;;;;;;;2.20;1.30;;;25.50;49.30;;;;;;5004511;28;20084;-57
2022/07/31 06:56:01;;;;;;;2.67;1.50;;;25.50;49.40;;;;;;5013631;28;20054;-56
2022/07/31 06:58:27;;;;;;;2.00;1.25;;;25.50;49.40;;;;;;5013098;28;20465;-56
2022/07/31 07:00:53;;;;;;;3.78;1.83;;;25.50;49.40;;;;;;5014717;28;20026;-56
2022/07/31 07:03:19;;;;;;;2.35;1.40;;;25.50;49.50;;;;;;5013400;28;20369;-56
2022/07/31 07:05:45;;;;;;;2.47;1.48;;;25.60;49.50;;;;;;5013163;28;20073;-56
2022/07/31 07:08:10;;;;;;;2.30;1.40;;;25.60;49.50;;;;;;5028331;28;20030;-55
2022/07/31 07:10:36;;;;;;;2.53;1.50;;;25.60;49.50;;;;;;5011951;28;20041;-58
2022/07/31 07:13:17;;;;;;;3.03;1.50;;;25.60;49.60;;;;;;5014236;28;20175;-60
2022/07/31 07:15:43;;;;;;;1.65;1.20;;;25.60;49.60;;;;;;5013424;28;20065;-56
2022/07/31 07:18:09;;;;;;;3.35;1.38;;;25.60;49.60;;;;;;5014320;28;20072;-56
2022/07/31 07:20:42;;;;;;;3.08;1.60;;;25.60;49.60;;;;;;5013993;28;20466;-56
2022/07/31 07:23:07;;;;;;;1.73;1.23;;;25.60;49.60;;;;;;5013887;28;20057;-56
2022/07/31 07:25:37;;;;;;;2.83;1.70;;;25.60;49.60;;;;;;5013963;28;20103;-55
2022/07/31 07:28:05;;;;;;;1.75;1.20;;;25.60;49.70;;;;;;5014460;28;20053;-54
2022/07/31 07:30:31;;;;;;;2.65;1.40;;;25.60;49.70;;;;;;5011642;28;20049;-58
2022/07/31 07:32:59;;;;;;;2.97;1.50;;;25.60;49.70;;;;;;5010167;28;20046;-56
2022/07/31 07:35:27;;;;;;;2.70;1.52;;;25.60;49.70;;;;;;5008773;28;20087;-56
2022/07/31 07:37:53;;;;;;;2.20;1.25;;;25.60;49.80;;;;;;4998372;28;20113;-59
2022/07/31 07:40:20;;;;;;;2.55;1.40;;;25.60;49.80;;;;;;5012927;28;20105;-57
2022/07/31 07:42:46;;;;;;;3.05;1.45;;;25.60;49.70;;;;;;5012525;28;20034;-57
2022/07/31 07:45:13;;;;;;;3.30;1.50;;;25.60;49.70;;;;;;5012212;28;20069;-54
2022/07/31 07:47:39;;;;;;;2.70;1.67;;;25.60;49.80;;;;;;5012339;28;20088;-56
2022/07/31 07:50:06;;;;;;;1.95;1.45;;;25.60;49.80;;;;;;5013246;28;20030;-57
2022/07/31 07:52:51;;;;;;;2.65;1.52;;;25.60;49.90;;;;;;5012438;28;20479;-56
2022/07/31 07:55:39;;;;;;;4.53;1.52;;;25.60;50.00;;;;;;5012942;28;20134;-57
2022/07/31 07:58:28;;;;;;;2.15;1.52;;;25.60;50.00;;;;;;4993993;28;20484;-56
2022/07/31 08:01:13;;;;;;;2.95;1.58;;;25.60;50.10;;;;;;4998784;28;20147;-56
2022/07/31 08:03:41;;;;;;;2.67;1.70;;;25.60;50.10;;;;;;5012993;28;20033;-58
2022/07/31 08:06:07;;;;;;;2.45;1.40;;;25.60;50.10;;;;;;5013565;28;20111;-54
2022/07/31 08:08:33;;;;;;;2.78;1.70;;;25.60;50.10;;;;;;5012138;28;20037;-56
2022/07/31 08:11:07;;;;;;;1.95;1.50;;;25.60;50.20;;;;;;5017418;28;20061;-55
2022/07/31 08:13:51;;;;;;;3.25;1.90;;;25.60;50.20;;;;;;5016841;28;20041;-56
2022/07/31 08:16:43;;;;;;;2.22;1.70;;;25.70;50.30;;;;;;4994543;28;20061;-59
2022/07/31 08:19:09;;;;;;;2.92;1.63;;;25.60;50.20;;;;;;5012228;28;20026;-59
2022/07/31 08:21:36;;;;;;;2.45;1.73;;;25.70;50.30;;;;;;5013534;28;20346;-57
2022/07/31 08:24:03;;;;;;;2.28;1.77;;;25.70;50.40;;;;;;5014950;28;20037;-57
2022/07/31 08:29:13;;;;;;;1.80;1.42;;;25.70;50.40;;;;;;5015340;28;20041;-57
2022/07/31 08:31:41;;;;;;;1.92;1.65;;;25.70;50.40;;;;;;5012289;28;20048;-58
2022/07/31 08:34:26;;;;;;;2.83;1.80;;;25.70;50.60;;;;;;5014810;28;20033;-65
2022/07/31 08:36:51;;;;;;;2.13;1.92;;;25.70;50.80;;;;;;5012210;28;20036;-55
2022/07/31 08:39:19;;;;;;;3.45;2.00;;;25.80;50.90;;;;;;5015089;28;20459;-56
2022/07/31 08:41:48;;;;;;;2.95;1.80;;;25.80;50.90;;;;;;5015190;28;20030;-56
2022/07/31 08:44:15;;;;;;;2.53;1.90;;;25.70;50.90;;;;;;5010564;28;20412;-56
2022/07/31 08:46:41;;;;;;;3.75;1.83;;;25.70;50.80;;;;;;5015437;28;20125;-55
2022/07/31 08:49:11;;;;;;;2.47;1.90;;;25.80;50.80;;;;;;5012773;28;20409;-55
2022/07/31 08:51:38;;;;;;;2.42;1.73;;;25.80;50.80;;;;;;5004514;28;20469;-55
2022/07/31 08:54:13;;;;;;;3.05;1.80;;;25.80;50.80;;;;;;5002177;28;20042;-62
2022/07/31 08:56:41;;;;;;;2.75;1.75;;;25.80;51.00;;;;;;5016672;28;20044;-59
2022/07/31 08:59:08;;;;;;;7.55;3.60;;;25.80;51.20;;;;;;5014322;28;20099;-58
2022/07/31 09:01:35;;;;;;;14.02;6.47;;;25.80;51.30;;;;;;5010231;28;20049;-57
2022/07/31 09:04:02;;;;;;;19.08;7.93;;;25.90;51.90;;;;;;5012992;28;20092;-58
2022/07/31 09:06:28;;;;;;;15.95;7.80;;;25.80;52.70;;;;;;5013958;28;20424;-54
2022/07/31 09:08:57;;;;;;;16.25;7.50;;;25.90;53.70;;;;;;5015234;28;20041;-58
2022/07/31 09:11:23;;;;;;;11.15;5.72;;;25.90;53.90;;;;;;5016851;28;20388;-59
2022/07/31 09:14:12;;;;;;;10.52;5.40;;;25.90;53.90;;;;;;5016041;28;20416;-61
2022/07/31 09:16:49;;;;;;;12.20;6.47;;;26.00;53.90;;;;;;5016130;28;20349;-57
2022/07/31 09:19:17;;;;;;;16.38;8.20;;;26.00;54.40;;;;;;5015637;28;20187;-59
2022/07/31 09:21:44;;;;;;;14.00;8.13;;;26.00;54.70;;;;;;5010600;28;20034;-60
2022/07/31 09:24:12;;;;;;;17.27;8.75;;;26.00;54.90;;;;;;5016961;28;20037;-54
2022/07/31 09:26:39;;;;;;;22.65;10.52;;;26.00;55.00;;;;;;5016919;28;20159;-57
2022/07/31 09:29:10;;;;;;;21.58;9.73;;;26.00;55.40;;;;;;5015615;28;20110;-58
2022/07/31 09:31:37;;;;;;;18.10;9.43;;;26.00;55.80;;;;;;5015621;28;20030;-59
2022/07/31 09:34:26;;;;;;;18.48;8.73;;;26.10;56.10;;;;;;5017528;28;20049;-59
2022/07/31 09:37:14;;;;;;;17.75;7.78;;;26.10;56.60;;;;;;5014706;28;20407;-58
2022/07/31 09:39:58;;;;;;;12.65;5.88;;;26.10;56.80;;;;;;4997758;28;20045;-60
2022/07/31 09:42:44;;;;;;;10.85;5.72;;;26.10;56.10;;;;;;5008263;28;20048;-60
2022/07/31 09:45:22;;;;;;;9.15;5.72;;;26.10;55.50;;;;;;5015485;28;20104;-57
2022/07/31 09:48:11;;;;;;;12.32;6.35;;;26.10;55.60;;;;;;5016831;28;20034;-59
2022/07/31 09:50:40;;;;;;;7.95;4.78;;;26.10;55.80;;;;;;5014454;28;20338;-61
2022/07/31 09:53:06;;;;;;;6.28;4.18;;;26.20;55.90;;;;;;5014809;28;20037;-50
2022/07/31 09:55:33;;;;;;;5.85;4.20;;;26.20;55.40;;;;;;5014626;28;20054;-59
2022/07/31 09:57:59;;;;;;;5.50;3.42;;;26.20;55.30;;;;;;5014886;28;20512;-59
2022/07/31 10:00:32;;;;;;;7.13;3.20;;;26.20;54.90;;;;;;4999291;28;20026;-59
2022/07/31 10:02:59;;;;;;;6.22;3.40;;;26.20;54.40;;;;;;5014813;28;20087;-57
2022/07/31 10:05:27;;;;;;;3.85;2.97;;;26.20;54.10;;;;;;5005900;28;20049;-53
2022/07/31 10:07:59;;;;;;;4.10;3.00;;;26.20;53.80;;;;;;5010914;28;20048;-54
2022/07/31 10:10:47;;;;;;;5.57;2.92;;;26.20;53.90;;;;;;5011497;28;20137;-54
2022/07/31 10:13:45;;;;;;;5.18;3.28;;;26.20;53.80;;;;;;5010960;28;20026;-49
2022/07/31 10:16:11;;;;;;;4.10;2.88;;;26.20;53.70;;;;;;5027232;28;20029;-51
2022/07/31 10:18:47;;;;;;;4.97;3.15;;;26.20;53.70;;;;;;5010540;28;20453;-54
2022/07/31 10:21:39;;;;;;;4.43;3.03;;;26.20;53.60;;;;;;5006294;28;20437;-55
2022/07/31 10:24:11;;;;;;;3.80;2.47;;;26.20;53.60;;;;;;5010726;28;20056;-51
2022/07/31 10:26:38;;;;;;;5.20;3.08;;;26.20;53.70;;;;;;5010389;28;20068;-55
2022/07/31 10:29:04;;;;;;;3.80;2.97;;;26.20;53.80;;;;;;5010532;28;20024;-51
2022/07/31 10:31:30;;;;;;;4.22;2.80;;;26.20;53.80;;;;;;5010101;28;20034;-54
2022/07/31 10:33:57;;;;;;;3.92;2.75;;;26.20;53.90;;;;;;5000147;28;20528;-57
2022/07/31 10:36:45;;;;;;;4.78;2.63;;;26.20;54.00;;;;;;4998794;28;20030;-52
2022/07/31 10:39:55;;;;;;;3.83;2.85;;;26.10;54.00;;;;;;5012391;28;20038;-51
2022/07/31 10:43:10;;;;;;;4.28;2.72;;;26.20;54.10;;;;;;5008872;28;20029;-53
2022/07/31 10:45:50;;;;;;;4.30;2.75;;;26.10;54.20;;;;;;4985156;28;20073;-51
2022/07/31 10:48:36;;;;;;;3.83;2.70;;;26.20;54.30;;;;;;4997032;28;20045;-56
2022/07/31 10:51:26;;;;;;;3.55;2.92;;;26.10;54.30;;;;;;5003820;28;20084;-52
2022/07/31 10:54:17;;;;;;;3.30;2.63;;;26.10;54.40;;;;;;4998533;28;20042;-52
2022/07/31 10:57:23;;;;;;;3.95;3.00;;;26.10;54.40;;;;;;5010124;28;20049;-52
2022/07/31 11:00:18;;;;;;;3.53;2.42;;;26.10;54.50;;;;;;4987580;28;20384;-54
2022/07/31 11:03:19;;;;;;;3.38;2.97;;;26.20;54.60;;;;;;5023878;28;20037;-59
2022/07/31 11:06:04;;;;;;;12.73;4.57;;;26.10;54.80;;;;;;5007103;28;20044;-56
2022/07/31 11:08:56;;;;;;;45.72;8.82;;;26.20;55.00;;;;;;5007788;28;20095;-55
2022/07/31 11:11:46;;;;;;;44.55;8.55;;;26.20;55.30;;;;;;5007144;28;20088;-62
2022/07/31 11:14:44;;;;;;;43.28;8.68;;;26.20;55.50;;;;;;4989878;28;20041;-62
2022/07/31 11:17:38;;;;;;;81.75;13.68;;;26.30;55.60;;;;;;4999690;28;20738;-60
2022/07/31 11:20:45;;;;;;;81.53;16.45;;;26.30;55.60;;;;;;4948929;28;20606;-60
2022/07/31 11:23:16;;;;;;;71.40;12.95;;;26.30;55.60;;;;;;4947604;28;20106;-61
2022/07/31 11:25:45;;;;;;;68.20;13.27;;;26.30;55.60;;;;;;4979796;28;20054;-60
2022/07/31 11:28:13;;;;;;;55.95;12.68;;;26.30;55.70;;;;;;5009193;28;20026;-58
2022/07/31 11:30:54;;;;;;;53.72;10.85;;;26.30;55.80;;;;;;5009615;28;20073;-58
2022/07/31 11:33:40;;;;;;;43.92;10.20;;;26.40;55.90;;;;;;5007414;28;20414;-55
2022/07/31 11:36:08;;;;;;;38.50;8.88;;;26.40;55.80;;;;;;5008245;28;20645;-58
2022/07/31 11:38:36;;;;;;;27.33;7.60;;;26.40;55.70;;;;;;5009646;28;20033;-61
2022/07/31 11:41:04;;;;;;;25.38;7.47;;;26.40;55.70;;;;;;5009393;28;20553;-58
2022/07/31 11:43:30;;;;;;;17.20;6.32;;;26.40;55.60;;;;;;5010234;28;20045;-58
2022/07/31 11:45:56;;;;;;;15.52;5.90;;;26.40;55.50;;;;;;5013815;28;20042;-58
2022/07/31 11:48:24;;;;;;;18.35;5.60;;;26.40;55.50;;;;;;5014171;28;20034;-57
2022/07/31 11:50:50;;;;;;;13.27;5.90;;;26.40;55.40;;;;;;5013011;28;20030;-58
2022/07/31 11:53:17;;;;;;;15.77;5.60;;;26.40;55.50;;;;;;5010799;28;20109;-58
2022/07/31 11:55:52;;;;;;;10.90;4.88;;;26.40;55.50;;;;;;5013573;28;20787;-58
2022/07/31 11:58:20;;;;;;;10.43;5.10;;;26.40;56.00;;;;;;5014359;28;20129;-53
2022/07/31 12:00:51;;;;;;;8.70;3.90;;;26.40;55.40;;;;;;5012627;28;21404;-56
2022/07/31 12:03:22;;;;;;;17.38;5.63;;;26.40;55.40;;;;;;5010236;28;20499;-61
2022/07/31 12:05:51;;;;;;;51.78;9.93;;;26.40;55.40;;;;;;5013231;28;20046;-64
2022/07/31 12:08:17;;;;;;;79.03;16.35;;;26.40;55.50;;;;;;5013499;28;20101;-55
2022/07/31 12:10:44;;;;;;;98.88;18.48;;;26.50;55.60;;;;;;5011351;28;20410;-62
2022/07/31 12:13:18;;;;;;;73.68;14.40;;;26.50;55.80;;;;;;5011530;28;20041;-59
2022/07/31 12:16:07;;;;;;;51.80;11.75;;;26.50;56.10;;;;;;5011802;28;20028;-55
2022/07/31 12:18:59;;;;;;;35.88;9.85;;;26.50;56.00;;;;;;5011707;28;20145;-62
2022/07/31 12:21:37;;;;;;;24.00;7.18;;;26.60;55.80;;;;;;5011719;28;20046;-60
2022/07/31 12:24:11;;;;;;;19.90;6.60;;;26.60;55.60;;;;;;5013549;28;20026;-61
2022/07/31 12:26:37;;;;;;;21.58;5.47;;;26.70;55.40;;;;;;5012874;28;20165;-60
2022/07/31 12:29:06;;;;;;;13.40;4.75;;;26.80;55.20;;;;;;5001225;28;20479;-61
2022/07/31 12:31:47;;;;;;;17.58;5.35;;;26.80;54.90;;;;;;5009872;28;20037;-54
2022/07/31 12:34:37;;;;;;;17.40;6.05;;;26.90;54.60;;;;;;5010239;28;20030;-58
2022/07/31 12:37:12;;;;;;;16.00;5.10;;;27.00;54.30;;;;;;5012473;28;20036;-56
2022/07/31 12:39:51;;;;;;;13.70;4.30;;;27.10;54.00;;;;;;5010193;28;20057;-54
2022/07/31 12:42:27;;;;;;;14.50;4.10;;;27.20;53.80;;;;;;5013514;28;20050;-56
2022/07/31 12:44:56;;;;;;;12.00;4.07;;;27.30;53.60;;;;;;5011947;28;20092;-57
2022/07/31 12:47:24;;;;;;;13.32;4.20;;;27.30;53.30;;;;;;5010886;28;20113;-54
2022/07/31 12:49:51;;;;;;;9.82;3.70;;;27.40;53.20;;;;;;5011451;28;20064;-57
2022/07/31 12:52:17;;;;;;;7.45;3.55;;;27.40;53.00;;;;;;5011950;28;20080;-59
2022/07/31 12:54:44;;;;;;;9.82;3.15;;;27.50;52.90;;;;;;5009261;28;20190;-59
2022/07/31 12:57:13;;;;;;;8.27;3.08;;;27.50;52.70;;;;;;5010965;28;20040;-62
2022/07/31 12:59:38;;;;;;;12.55;2.83;;;27.50;52.60;;;;;;5011416;28;20109;-63
2022/07/31 13:02:05;;;;;;;5.95;3.25;;;27.60;52.60;;;;;;5012615;28;20033;-63
2022/07/31 13:04:31;;;;;;;6.63;2.63;;;27.60;52.50;;;;;;5012550;28;20025;-64
2022/07/31 13:06:58;;;;;;;3.97;2.88;;;27.60;52.30;;;;;;5011496;28;20436;-63
2022/07/31 13:09:23;;;;;;;4.35;2.22;;;27.70;52.30;;;;;;5000659;28;20022;-63
2022/07/31 13:11:49;;;;;;;5.10;2.30;;;27.70;52.20;;;;;;5013860;28;20026;-62